Eurodam — PHOS — position and weather

sailwx.info

Track history (hours):
 
Tides and Currents Weather Stations Pressure Air Temp Water Temp Dewpoint Dewpoint Depression Visibility Wind Speed Wind Dir Waves Ship Positions

Eurodam (Netherlands)

Last reported at 2017-May-22 13:00 UTC. Time now 2017-May-23 08:59 UTC.
Position N 56°30' W 134°24'.

Length 287 m; draft 8 m.

Type: Ship. MMSI: 245206000.

Wind from 150 at 8 knots

Barometer 1019.5 mb
Air temperature 12.0 ° C
Visibility: greater than 1.1 NM
Dewpoint 11.2 ° C
Water temperature 8.0 ° C

Date/timePositionNaut miles runAvg speedWind from/ knotsBaromVisibWave heightAir tempDewpointWater temp
2017-May-22 13:00N 56°30' W 134°24'4221.0 150 / 81019.5 1.1 12.011.2 8.0
2017-May-22 11:00N 55°48' W 134°24'15118.9 150 / 121020.2 1.1 9.0 8.2 8.0
2017-May-22 03:00N 53°24' W 133°06'3718.5 150 / 231023.4 2.2 10.2 8.5
2017-May-22 01:00N 52°54' W 132°30'14420.3 150 / 221024.1 1.1 14.012.0 8.8
2017-May-21 17:53N 51°04' W 129°58'13621.5
2017-May-21 11:33N 49°36' W 127°16'221.1
2017-May-21 11:28N 49°35' W 127°13'1021.4
2017-May-21 11:00N 49°29' W 127°01'1121.5
2017-May-21 10:30N 49°22' W 126°48'1121.3
2017-May-21 10:00N 49°16' W 126°35'1121.3
2017-May-21 09:30N 49°10' W 126°22'1121.2
2017-May-21 09:00N 49°04' W 126°08'1020.7
2017-May-21 08:30N 48°58' W 125°56'1020.6
2017-May-21 08:00N 48°52' W 125°43'14867.8
2017-May-21 08:00N 49°00' W 126°00'2449.9 320 / 211024.8 1.1 10.710.211.3
2017-May-21 07:30N 48°46' W 125°30'1020.7
2017-May-21 07:00N 48°41' W 125°17'1020.6
2017-May-21 06:30N 48°35' W 125°03'1020.4
2017-May-21 06:00N 48°31' W 124°49'1020.8
2017-May-21 05:30N 48°28' W 124°34'1120.8
2017-May-21 05:00N 48°24' W 124°20'1020.3
2017-May-21 04:30N 48°20' W 124°06'1020.0
2017-May-21 04:00N 48°17' W 123°51'1020.2
2017-May-21 03:30N 48°16' W 123°36'918.8
2017-May-21 03:00N 48°12' W 123°23'5 9.4
2017-May-21 02:30N 48°10' W 123°17'1019.6
2017-May-21 02:00N 48°13' W 123°03'1121.6
2017-May-21 01:30N 48°12' W 122°47'1121.5
2017-May-21 01:00N 48°03' W 122°38'3414.0
2017-May-21 01:00N 48°00' W 122°36'816.5 010 / 181022.4 14.2 10.3
2017-May-21 00:31N 47°54' W 122°29'1121.1
2017-May-21 00:00N 47°43' W 122°27'612.5
2017-May-20 23:30N 47°37' W 122°23'0 0.7
2017-May-20 22:59N 47°38' W 122°23'0 0.0
2017-May-20 22:29N 47°38' W 122°23'0 0.0
2017-May-20 21:59N 47°38' W 122°23'0 0.0
2017-May-20 21:29N 47°38' W 122°23'0 0.0
2017-May-20 20:59N 47°38' W 122°23'0 0.0
2017-May-20 20:26N 47°38' W 122°23'0 0.0
2017-May-20 19:59N 47°38' W 122°23'0 0.0
2017-May-20 19:29N 47°38' W 122°23'0 0.0
2017-May-20 18:56N 47°38' W 122°23'0 0.0
2017-May-20 18:29N 47°38' W 122°23'0 0.0
2017-May-20 17:59N 47°38' W 122°23'0 0.0
2017-May-20 17:29N 47°38' W 122°23'0 0.0
2017-May-20 16:59N 47°38' W 122°23'0 0.0
2017-May-20 16:29N 47°38' W 122°23'0 0.0
2017-May-20 15:59N 47°38' W 122°23'0 0.0
2017-May-20 15:29N 47°38' W 122°23'0 0.0
2017-May-20 14:59N 47°38' W 122°23'0 0.0
2017-May-20 14:29N 47°38' W 122°23'0 0.0
2017-May-20 13:29N 47°38' W 122°23'0 0.0
2017-May-20 13:00N 47°38' W 122°23'1 2.3
2017-May-20 12:31N 47°37' W 122°25'510.4
2017-May-20 12:00N 47°42' W 122°28'713.7
2017-May-20 11:31N 47°49' W 122°28'713.7
2017-May-20 11:00N 47°56' W 122°31'814.6
2017-May-20 10:29N 48°02' W 122°38'714.5
2017-May-20 10:00N 48°08' W 122°43'814.7
2017-May-20 09:27N 48°11' W 122°54'716.4
2017-May-20 09:00N 48°12' W 123°05'816.3
2017-May-20 08:30N 48°11' W 123°17'612.4
2017-May-20 08:00N 48°11' W 123°26'814.9
2017-May-20 07:30N 48°18' W 123°28'713.0
2017-May-20 07:00N 48°24' W 123°25'1 2.3
2017-May-20 06:25N 48°25' W 123°23'0 0.0
2017-May-20 05:58N 48°25' W 123°23'0 0.0
2017-May-20 05:28N 48°25' W 123°23'0 0.0
2017-May-20 02:59N 48°25' W 123°23'0 0.0
2017-May-20 02:07N 48°25' W 123°23'0 0.0
2017-May-20 01:39N 48°25' W 123°23'0 0.0
2017-May-20 01:27N 48°25' W 123°23'0 0.0
2017-May-20 00:53N 48°25' W 123°23'2 4.3
2017-May-20 00:30N 48°24' W 123°25'714.2
2017-May-20 00:00N 48°17' W 123°26'1019.2
2017-May-19 23:28N 48°13' W 123°40'1021.3
2017-May-19 22:59N 48°14' W 123°56'1021.5
2017-May-19 22:30N 48°18' W 124°10'1121.5
2017-May-19 22:00N 48°23' W 124°25'918.7
2017-May-19 21:30N 48°26' W 124°38'714.8
2017-May-19 21:00N 48°29' W 124°48'815.3
2017-May-19 20:30N 48°29' W 124°60'815.7
2017-May-19 20:00N 48°30' W 125°11'1020.6
2017-May-19 19:30N 48°36' W 125°24'1122.4
2017-May-19 19:00N 48°43' W 125°37'1122.0
2017-May-19 18:30N 48°50' W 125°50'1122.0
2017-May-19 18:00N 48°57' W 126°03'1122.2
2017-May-19 17:30N 49°04' W 126°16'1122.7
2017-May-19 17:00N 49°11' W 126°29'1122.5
2017-May-19 16:30N 49°18' W 126°43'1122.5
2017-May-19 16:00N 49°25' W 126°56'1222.5
2017-May-19 15:30N 49°33' W 127°09'7321.9
2017-May-19 12:10N 50°28' W 128°24'423.0
2017-May-19 11:59N 50°31' W 128°28'1322.9
2017-May-19 11:26N 50°42' W 128°39'922.2
2017-May-19 11:00N 50°50' W 128°46'1122.4
2017-May-19 10:30N 51°00' W 128°54'1122.2
2017-May-19 10:00N 51°10' W 129°01'11731.7
2017-May-19 10:00N 51°00' W 128°54'2245.8 1020.810.8 10.9 8.810.0
2017-May-19 09:30N 51°20' W 129°09'1122.2
2017-May-19 09:00N 51°30' W 129°17'1122.3
2017-May-19 08:30N 51°40' W 129°24'1122.6
2017-May-19 08:00N 51°50' W 129°32'9022.5
2017-May-19 04:00N 53°12' W 130°36'148 9.2 230 / 121021.210.8 10.5 9.5
2017-May-18 12:00N 55°30' W 132°06'144 6.0 140 / 141018.610.8 10.0 7.8 9.0
2017-May-17 12:00N 56°54' W 135°36'5711.5 190 / 111014.010.8 6.3 5.4 8.1
2017-May-17 07:00N 57°36' W 136°48'134 3.0 230 / 101013.8 0.1 5.8 7.7
2017-May-15 10:00N 55°48' W 134°24'17121.4 340 / 171002.610.8 6.6 3.7 7.7
2017-May-15 02:00N 53°06' W 132°48'2121.0 200 / 181006.0 5.4 13.0-1.7 8.3
2017-May-15 01:00N 52°48' W 132°30'1918.9 170 / 261008.4 5.4 12.0-2.6 8.7
2017-May-15 00:00N 52°36' W 132°06'2121.1 210 / 201010.3 5.4 9.0-6.1 8.7
2017-May-14 23:00N 52°18' W 131°48'18420.4 220 / 231011.0 5.4 11.0-4.3 9.0
2017-May-14 14:00N 50°06' W 128°24'6120.8 300 / 181015.710.8 9.0 5.910.4
2017-May-14 11:05N 49°31' W 127°07'388845300.0
2017-May-14 11:00N 49°36' W 027°12'388762194.2 010 / 111015.410.8 10.0 6.510.5
2017-May-14 10:56N 49°30' W 127°03'920.9
2017-May-14 10:31N 49°24' W 126°52'1121.1
2017-May-14 10:01N 49°17' W 126°40'1020.5
2017-May-14 09:31N 49°11' W 126°27'1020.7
2017-May-14 09:00N 49°05' W 126°14'1020.4
2017-May-14 08:30N 48°60' W 126°01'1020.4
2017-May-14 08:00N 48°54' W 125°48'1020.9
2017-May-14 07:30N 48°48' W 125°35'1121.2
2017-May-14 07:00N 48°43' W 125°21'1020.8
2017-May-14 06:30N 48°38' W 125°07'3221.5
2017-May-14 05:02N 48°25' W 124°24'520.9
2017-May-14 04:46N 48°23' W 124°16'720.7
2017-May-14 04:27N 48°20' W 124°07'920.8
2017-May-14 04:00N 48°17' W 123°54'1121.1
2017-May-14 03:29N 48°15' W 123°38'919.1
2017-May-14 03:00N 48°11' W 123°25'612.3
2017-May-14 02:30N 48°10' W 123°16'1019.8
2017-May-14 02:00N 48°12' W 123°02'1020.2
2017-May-14 01:29N 48°11' W 122°47'1017.4
2017-May-14 00:53N 48°02' W 122°38'718.5
2017-May-14 00:30N 47°57' W 122°31'1020.8
2017-May-14 00:00N 47°47' W 122°26'918.4
2017-May-13 23:30N 47°38' W 122°25'2 3.0
2017-May-13 22:58N 47°38' W 122°23'0 0.0
2017-May-13 22:28N 47°38' W 122°23'0 0.0
2017-May-13 21:58N 47°38' W 122°23'0 0.0
2017-May-13 21:28N 47°38' W 122°23'0 0.0
2017-May-13 20:58N 47°38' W 122°23'0 0.0
2017-May-13 20:28N 47°38' W 122°23'0 0.0
2017-May-13 19:58N 47°38' W 122°23'0 0.0
2017-May-13 19:28N 47°38' W 122°23'0 0.0
2017-May-13 18:55N 47°38' W 122°23'0 0.0
2017-May-13 18:28N 47°38' W 122°23'0 0.0
2017-May-13 17:58N 47°38' W 122°23'0 0.0
2017-May-13 17:28N 47°38' W 122°23'0 0.0
2017-May-13 16:58N 47°38' W 122°23'0 0.0
2017-May-13 16:28N 47°38' W 122°23'0 0.0
2017-May-13 15:58N 47°38' W 122°23'0 0.0
2017-May-13 15:28N 47°38' W 122°23'0 0.0
2017-May-13 14:58N 47°38' W 122°23'0 0.0
2017-May-13 14:30N 47°38' W 122°23'0 0.0
2017-May-13 13:29N 47°38' W 122°23'0 0.0
2017-May-13 13:00N 47°38' W 122°23'2 4.5
2017-May-13 12:30N 47°37' W 122°26'611.9
2017-May-13 12:00N 47°42' W 122°27'713.6
2017-May-13 11:30N 47°49' W 122°28'815.1
2017-May-13 11:00N 47°56' W 122°32'815.3
2017-May-13 10:28N 48°03' W 122°39'715.6
2017-May-13 10:00N 48°09' W 122°45'816.7
2017-May-13 09:30N 48°11' W 122°57'816.0
2017-May-13 09:00N 48°12' W 123°09'815.9
2017-May-13 08:30N 48°10' W 123°20'510.0
2017-May-13 08:00N 48°12' W 123°27'715.0
2017-May-13 07:31N 48°19' W 123°28'611.4
2017-May-13 07:00N 48°24' W 123°25'1 2.2
2017-May-13 06:28N 48°25' W 123°23'0 0.0
2017-May-13 05:58N 48°25' W 123°23'0 0.0
2017-May-13 05:28N 48°25' W 123°23'0 0.0
2017-May-13 04:59N 48°25' W 123°23'0 0.0
2017-May-13 04:30N 48°25' W 123°23'0 0.0
2017-May-13 03:59N 48°25' W 123°23'0 0.0
2017-May-13 03:29N 48°25' W 123°23'0 0.0
2017-May-13 02:57N 48°25' W 123°23'0 0.0
2017-May-13 02:27N 48°25' W 123°23'0 0.0
2017-May-13 01:54N 48°25' W 123°23'0 0.2
2017-May-13 01:30N 48°25' W 123°23'4 7.6
2017-May-13 01:00N 48°21' W 123°24'917.6
2017-May-13 00:30N 48°14' W 123°30'1223.6
2017-May-13 00:00N 48°13' W 123°48'1223.0
2017-May-12 23:30N 48°17' W 124°05'1223.7
2017-May-12 23:01N 48°21' W 124°21'1918.5
2017-May-12 22:00N 48°28' W 124°47'816.3
2017-May-12 21:29N 48°29' W 124°59'815.0
2017-May-12 20:58N 48°30' W 125°11'715.8
2017-May-12 20:30N 48°34' W 125°20'1121.5
2017-May-12 20:00N 48°41' W 125°32'1121.4
2017-May-12 19:30N 48°47' W 125°45'1121.2
2017-May-12 19:00N 48°54' W 125°58'1020.6
2017-May-12 18:30N 49°01' W 126°09'1020.7
2017-May-12 18:00N 49°08' W 126°21'1020.8
2017-May-12 17:31N 49°15' W 126°33'1020.1
2017-May-12 17:01N 49°22' W 126°44'1020.2
2017-May-12 16:30N 49°28' W 126°57'  
Track history (hours):
 
Tides and Currents Weather Stations Pressure Air Temp Water Temp Dewpoint Dewpoint Depression Visibility Wind Speed Wind Dir Waves Ship Positions

Eurodam (Netherlands)

Last reported at 2017-May-22 13:00 UTC. Time now 2017-May-23 08:59 UTC.
Position N 56°30' W 134°24'.

Length 287 m; draft 8 m.

Type: Ship. MMSI: 245206000.

Wind from 150 at 8 knots

Barometer 1019.5 mb
Air temperature 12.0 ° C
Visibility: greater than 1.1 NM
Dewpoint 11.2 ° C
Water temperature 8.0 ° C

Date/timePositionNaut miles runAvg speedWind from/ knotsBaromVisibWave heightAir tempDewpointWater temp
2017-May-22 13:00N 56°30' W 134°24'4221.0 150 / 81019.5 1.1 12.011.2 8.0
2017-May-22 11:00N 55°48' W 134°24'15118.9 150 / 121020.2 1.1 9.0 8.2 8.0
2017-May-22 03:00N 53°24' W 133°06'3718.5 150 / 231023.4 2.2 10.2 8.5
2017-May-22 01:00N 52°54' W 132°30'14420.3 150 / 221024.1 1.1 14.012.0 8.8
2017-May-21 17:53N 51°04' W 129°58'13621.5
2017-May-21 11:33N 49°36' W 127°16'221.1
2017-May-21 11:28N 49°35' W 127°13'1021.4
2017-May-21 11:00N 49°29' W 127°01'1121.5
2017-May-21 10:30N 49°22' W 126°48'1121.3
2017-May-21 10:00N 49°16' W 126°35'1121.3
2017-May-21 09:30N 49°10' W 126°22'1121.2
2017-May-21 09:00N 49°04' W 126°08'1020.7
2017-May-21 08:30N 48°58' W 125°56'1020.6
2017-May-21 08:00N 48°52' W 125°43'14867.8
2017-May-21 08:00N 49°00' W 126°00'2449.9 320 / 211024.8 1.1 10.710.211.3
2017-May-21 07:30N 48°46' W 125°30'1020.7
2017-May-21 07:00N 48°41' W 125°17'1020.6
2017-May-21 06:30N 48°35' W 125°03'1020.4
2017-May-21 06:00N 48°31' W 124°49'1020.8
2017-May-21 05:30N 48°28' W 124°34'1120.8
2017-May-21 05:00N 48°24' W 124°20'1020.3
2017-May-21 04:30N 48°20' W 124°06'1020.0
2017-May-21 04:00N 48°17' W 123°51'1020.2
2017-May-21 03:30N 48°16' W 123°36'918.8
2017-May-21 03:00N 48°12' W 123°23'5 9.4
2017-May-21 02:30N 48°10' W 123°17'1019.6
2017-May-21 02:00N 48°13' W 123°03'1121.6
2017-May-21 01:30N 48°12' W 122°47'1121.5
2017-May-21 01:00N 48°03' W 122°38'3414.0
2017-May-21 01:00N 48°00' W 122°36'816.5 010 / 181022.4 14.2 10.3
2017-May-21 00:31N 47°54' W 122°29'1121.1
2017-May-21 00:00N 47°43' W 122°27'612.5
2017-May-20 23:30N 47°37' W 122°23'0 0.7
2017-May-20 22:59N 47°38' W 122°23'0 0.0
2017-May-20 22:29N 47°38' W 122°23'0 0.0
2017-May-20 21:59N 47°38' W 122°23'0 0.0
2017-May-20 21:29N 47°38' W 122°23'0 0.0
2017-May-20 20:59N 47°38' W 122°23'0 0.0
2017-May-20 20:26N 47°38' W 122°23'0 0.0
2017-May-20 19:59N 47°38' W 122°23'0 0.0
2017-May-20 19:29N 47°38' W 122°23'0 0.0
2017-May-20 18:56N 47°38' W 122°23'0 0.0
2017-May-20 18:29N 47°38' W 122°23'0 0.0
2017-May-20 17:59N 47°38' W 122°23'0 0.0
2017-May-20 17:29N 47°38' W 122°23'0 0.0
2017-May-20 16:59N 47°38' W 122°23'0 0.0
2017-May-20 16:29N 47°38' W 122°23'0 0.0
2017-May-20 15:59N 47°38' W 122°23'0 0.0
2017-May-20 15:29N 47°38' W 122°23'0 0.0
2017-May-20 14:59N 47°38' W 122°23'0 0.0
2017-May-20 14:29N 47°38' W 122°23'0 0.0
2017-May-20 13:29N 47°38' W 122°23'0 0.0
2017-May-20 13:00N 47°38' W 122°23'1 2.3
2017-May-20 12:31N 47°37' W 122°25'510.4
2017-May-20 12:00N 47°42' W 122°28'713.7
2017-May-20 11:31N 47°49' W 122°28'713.7
2017-May-20 11:00N 47°56' W 122°31'814.6
2017-May-20 10:29N 48°02' W 122°38'714.5
2017-May-20 10:00N 48°08' W 122°43'814.7
2017-May-20 09:27N 48°11' W 122°54'716.4
2017-May-20 09:00N 48°12' W 123°05'816.3
2017-May-20 08:30N 48°11' W 123°17'612.4
2017-May-20 08:00N 48°11' W 123°26'814.9
2017-May-20 07:30N 48°18' W 123°28'713.0
2017-May-20 07:00N 48°24' W 123°25'1 2.3
2017-May-20 06:25N 48°25' W 123°23'0 0.0
2017-May-20 05:58N 48°25' W 123°23'0 0.0
2017-May-20 05:28N 48°25' W 123°23'0 0.0
2017-May-20 02:59N 48°25' W 123°23'0 0.0
2017-May-20 02:07N 48°25' W 123°23'0 0.0
2017-May-20 01:39N 48°25' W 123°23'0 0.0
2017-May-20 01:27N 48°25' W 123°23'0 0.0
2017-May-20 00:53N 48°25' W 123°23'2 4.3
2017-May-20 00:30N 48°24' W 123°25'714.2
2017-May-20 00:00N 48°17' W 123°26'1019.2
2017-May-19 23:28N 48°13' W 123°40'1021.3
2017-May-19 22:59N 48°14' W 123°56'1021.5
2017-May-19 22:30N 48°18' W 124°10'1121.5
2017-May-19 22:00N 48°23' W 124°25'918.7
2017-May-19 21:30N 48°26' W 124°38'714.8
2017-May-19 21:00N 48°29' W 124°48'815.3
2017-May-19 20:30N 48°29' W 124°60'815.7
2017-May-19 20:00N 48°30' W 125°11'1020.6
2017-May-19 19:30N 48°36' W 125°24'1122.4
2017-May-19 19:00N 48°43' W 125°37'1122.0
2017-May-19 18:30N 48°50' W 125°50'1122.0
2017-May-19 18:00N 48°57' W 126°03'1122.2
2017-May-19 17:30N 49°04' W 126°16'1122.7
2017-May-19 17:00N 49°11' W 126°29'1122.5
2017-May-19 16:30N 49°18' W 126°43'1122.5
2017-May-19 16:00N 49°25' W 126°56'1222.5
2017-May-19 15:30N 49°33' W 127°09'7321.9
2017-May-19 12:10N 50°28' W 128°24'423.0
2017-May-19 11:59N 50°31' W 128°28'1322.9
2017-May-19 11:26N 50°42' W 128°39'922.2
2017-May-19 11:00N 50°50' W 128°46'1122.4
2017-May-19 10:30N 51°00' W 128°54'1122.2
2017-May-19 10:00N 51°10' W 129°01'11731.7
2017-May-19 10:00N 51°00' W 128°54'2245.8 1020.810.8 10.9 8.810.0
2017-May-19 09:30N 51°20' W 129°09'1122.2
2017-May-19 09:00N 51°30' W 129°17'1122.3
2017-May-19 08:30N 51°40' W 129°24'1122.6
2017-May-19 08:00N 51°50' W 129°32'9022.5
2017-May-19 04:00N 53°12' W 130°36'148 9.2 230 / 121021.210.8 10.5 9.5
2017-May-18 12:00N 55°30' W 132°06'144 6.0 140 / 141018.610.8 10.0 7.8 9.0
2017-May-17 12:00N 56°54' W 135°36'5711.5 190 / 111014.010.8 6.3 5.4 8.1
2017-May-17 07:00N 57°36' W 136°48'134 3.0 230 / 101013.8 0.1 5.8 7.7
2017-May-15 10:00N 55°48' W 134°24'17121.4 340 / 171002.610.8 6.6 3.7 7.7
2017-May-15 02:00N 53°06' W 132°48'2121.0 200 / 181006.0 5.4 13.0-1.7 8.3
2017-May-15 01:00N 52°48' W 132°30'1918.9 170 / 261008.4 5.4 12.0-2.6 8.7
2017-May-15 00:00N 52°36' W 132°06'2121.1 210 / 201010.3 5.4 9.0-6.1 8.7
2017-May-14 23:00N 52°18' W 131°48'18420.4 220 / 231011.0 5.4 11.0-4.3 9.0
2017-May-14 14:00N 50°06' W 128°24'6120.8 300 / 181015.710.8 9.0 5.910.4
2017-May-14 11:05N 49°31' W 127°07'388845300.0
2017-May-14 11:00N 49°36' W 027°12'388762194.2 010 / 111015.410.8 10.0 6.510.5
2017-May-14 10:56N 49°30' W 127°03'920.9
2017-May-14 10:31N 49°24' W 126°52'1121.1
2017-May-14 10:01N 49°17' W 126°40'1020.5
2017-May-14 09:31N 49°11' W 126°27'1020.7
2017-May-14 09:00N 49°05' W 126°14'1020.4
2017-May-14 08:30N 48°60' W 126°01'1020.4
2017-May-14 08:00N 48°54' W 125°48'1020.9
2017-May-14 07:30N 48°48' W 125°35'1121.2
2017-May-14 07:00N 48°43' W 125°21'1020.8
2017-May-14 06:30N 48°38' W 125°07'3221.5
2017-May-14 05:02N 48°25' W 124°24'520.9
2017-May-14 04:46N 48°23' W 124°16'720.7
2017-May-14 04:27N 48°20' W 124°07'920.8
2017-May-14 04:00N 48°17' W 123°54'1121.1
2017-May-14 03:29N 48°15' W 123°38'919.1
2017-May-14 03:00N 48°11' W 123°25'612.3
2017-May-14 02:30N 48°10' W 123°16'1019.8
2017-May-14 02:00N 48°12' W 123°02'1020.2
2017-May-14 01:29N 48°11' W 122°47'1017.4
2017-May-14 00:53N 48°02' W 122°38'718.5
2017-May-14 00:30N 47°57' W 122°31'1020.8
2017-May-14 00:00N 47°47' W 122°26'918.4
2017-May-13 23:30N 47°38' W 122°25'2 3.0
2017-May-13 22:58N 47°38' W 122°23'0 0.0
2017-May-13 22:28N 47°38' W 122°23'0 0.0
2017-May-13 21:58N 47°38' W 122°23'0 0.0
2017-May-13 21:28N 47°38' W 122°23'0 0.0
2017-May-13 20:58N 47°38' W 122°23'0 0.0
2017-May-13 20:28N 47°38' W 122°23'0 0.0
2017-May-13 19:58N 47°38' W 122°23'0 0.0
2017-May-13 19:28N 47°38' W 122°23'0 0.0
2017-May-13 18:55N 47°38' W 122°23'0 0.0
2017-May-13 18:28N 47°38' W 122°23'0 0.0
2017-May-13 17:58N 47°38' W 122°23'0 0.0
2017-May-13 17:28N 47°38' W 122°23'0 0.0
2017-May-13 16:58N 47°38' W 122°23'0 0.0
2017-May-13 16:28N 47°38' W 122°23'0 0.0
2017-May-13 15:58N 47°38' W 122°23'0 0.0
2017-May-13 15:28N 47°38' W 122°23'0 0.0
2017-May-13 14:58N 47°38' W 122°23'0 0.0
2017-May-13 14:30N 47°38' W 122°23'0 0.0
2017-May-13 13:29N 47°38' W 122°23'0 0.0
2017-May-13 13:00N 47°38' W 122°23'2 4.5
2017-May-13 12:30N 47°37' W 122°26'611.9
2017-May-13 12:00N 47°42' W 122°27'713.6
2017-May-13 11:30N 47°49' W 122°28'815.1
2017-May-13 11:00N 47°56' W 122°32'815.3
2017-May-13 10:28N 48°03' W 122°39'715.6
2017-May-13 10:00N 48°09' W 122°45'816.7
2017-May-13 09:30N 48°11' W 122°57'816.0
2017-May-13 09:00N 48°12' W 123°09'815.9
2017-May-13 08:30N 48°10' W 123°20'510.0
2017-May-13 08:00N 48°12' W 123°27'715.0
2017-May-13 07:31N 48°19' W 123°28'611.4
2017-May-13 07:00N 48°24' W 123°25'1 2.2
2017-May-13 06:28N 48°25' W 123°23'0 0.0
2017-May-13 05:58N 48°25' W 123°23'0 0.0
2017-May-13 05:28N 48°25' W 123°23'0 0.0
2017-May-13 04:59N 48°25' W 123°23'0 0.0
2017-May-13 04:30N 48°25' W 123°23'0 0.0
2017-May-13 03:59N 48°25' W 123°23'0 0.0
2017-May-13 03:29N 48°25' W 123°23'0 0.0
2017-May-13 02:57N 48°25' W 123°23'0 0.0
2017-May-13 02:27N 48°25' W 123°23'0 0.0
2017-May-13 01:54N 48°25' W 123°23'0 0.2
2017-May-13 01:30N 48°25' W 123°23'4 7.6
2017-May-13 01:00N 48°21' W 123°24'917.6
2017-May-13 00:30N 48°14' W 123°30'1223.6
2017-May-13 00:00N 48°13' W 123°48'1223.0
2017-May-12 23:30N 48°17' W 124°05'1223.7
2017-May-12 23:01N 48°21' W 124°21'1918.5
2017-May-12 22:00N 48°28' W 124°47'816.3
2017-May-12 21:29N 48°29' W 124°59'815.0
2017-May-12 20:58N 48°30' W 125°11'715.8
2017-May-12 20:30N 48°34' W 125°20'1121.5
2017-May-12 20:00N 48°41' W 125°32'1121.4
2017-May-12 19:30N 48°47' W 125°45'1121.2
2017-May-12 19:00N 48°54' W 125°58'1020.6
2017-May-12 18:30N 49°01' W 126°09'1020.7
2017-May-12 18:00N 49°08' W 126°21'1020.8
2017-May-12 17:31N 49°15' W 126°33'1020.1
2017-May-12 17:01N 49°22' W 126°44'1020.2
2017-May-12 16:30N 49°28' W 126°57'  

Dump ship's entire track history